sensor_id;sensor_type;location;lat;lon;timestamp;temperature;humidity
8778;DHT22;4425;50.872;4.712;2023-11-18T00:01:04;5.70;99.90
8778;DHT22;4425;50.872;4.712;2023-11-18T00:03:32;5.70;99.90
8778;DHT22;4425;50.872;4.712;2023-11-18T00:05:59;5.70;99.90
8778;DHT22;4425;50.872;4.712;2023-11-18T00:08:26;5.70;99.90
8778;DHT22;4425;50.872;4.712;2023-11-18T00:10:53;5.90;99.90
8778;DHT22;4425;50.872;4.712;2023-11-18T00:13:20;5.80;99.90
8778;DHT22;4425;50.872;4.712;2023-11-18T00:15:47;5.80;99.90
8778;DHT22;4425;50.872;4.712;2023-11-18T00:18:14;5.80;99.90
8778;DHT22;4425;50.872;4.712;2023-11-18T00:20:42;5.80;99.90
8778;DHT22;4425;50.872;4.712;2023-11-18T00:23:09;5.80;99.90
8778;DHT22;4425;50.872;4.712;2023-11-18T00:25:36;5.80;99.90
8778;DHT22;4425;50.872;4.712;2023-11-18T00:28:05;5.80;99.90
8778;DHT22;4425;50.872;4.712;2023-11-18T00:30:32;5.70;99.90
8778;DHT22;4425;50.872;4.712;2023-11-18T00:32:59;5.80;99.90
8778;DHT22;4425;50.872;4.712;2023-11-18T00:35:26;5.70;99.90
8778;DHT22;4425;50.872;4.712;2023-11-18T00:37:54;5.70;99.90
8778;DHT22;4425;50.872;4.712;2023-11-18T00:40:21;5.70;99.90
8778;DHT22;4425;50.872;4.712;2023-11-18T00:42:47;5.70;99.90
8778;DHT22;4425;50.872;4.712;2023-11-18T00:45:15;5.70;99.90
8778;DHT22;4425;50.872;4.712;2023-11-18T00:47:43;5.80;99.90
8778;DHT22;4425;50.872;4.712;2023-11-18T00:50:10;5.80;99.90
8778;DHT22;4425;50.872;4.712;2023-11-18T00:52:37;5.70;99.90
8778;DHT22;4425;50.872;4.712;2023-11-18T00:55:08;5.80;99.90
8778;DHT22;4425;50.872;4.712;2023-11-18T00:57:36;5.80;99.90
8778;DHT22;4425;50.872;4.712;2023-11-18T01:00:06;5.80;99.90
8778;DHT22;4425;50.872;4.712;2023-11-18T01:02:33;5.80;99.90
8778;DHT22;4425;50.872;4.712;2023-11-18T01:05:00;5.80;99.90
8778;DHT22;4425;50.872;4.712;2023-11-18T01:07:26;5.90;99.90
8778;DHT22;4425;50.872;4.712;2023-11-18T01:09:53;6.00;99.90
8778;DHT22;4425;50.872;4.712;2023-11-18T01:12:22;5.90;99.90
8778;DHT22;4425;50.872;4.712;2023-11-18T01:14:48;5.90;99.90
8778;DHT22;4425;50.872;4.712;2023-11-18T01:17:15;5.90;99.90
8778;DHT22;4425;50.872;4.712;2023-11-18T01:19:42;6.00;99.90
8778;DHT22;4425;50.872;4.712;2023-11-18T01:22:09;5.90;99.90
8778;DHT22;4425;50.872;4.712;2023-11-18T01:24:37;6.00;99.90
8778;DHT22;4425;50.872;4.712;2023-11-18T01:27:04;6.00;99.90
8778;DHT22;4425;50.872;4.712;2023-11-18T01:29:34;6.00;99.90
8778;DHT22;4425;50.872;4.712;2023-11-18T01:32:01;6.00;99.90
8778;DHT22;4425;50.872;4.712;2023-11-18T01:34:35;6.00;99.90
8778;DHT22;4425;50.872;4.712;2023-11-18T01:37:03;6.00;99.90
8778;DHT22;4425;50.872;4.712;2023-11-18T01:39:32;6.10;99.90
8778;DHT22;4425;50.872;4.712;2023-11-18T01:41:59;6.00;99.90
8778;DHT22;4425;50.872;4.712;2023-11-18T01:44:26;6.00;99.90
8778;DHT22;4425;50.872;4.712;2023-11-18T01:46:56;6.10;99.90
8778;DHT22;4425;50.872;4.712;2023-11-18T01:49:24;6.10;99.90
8778;DHT22;4425;50.872;4.712;2023-11-18T01:51:53;6.00;99.90
8778;DHT22;4425;50.872;4.712;2023-11-18T01:54:21;6.00;99.90
8778;DHT22;4425;50.872;4.712;2023-11-18T01:56:51;6.00;99.90
8778;DHT22;4425;50.872;4.712;2023-11-18T01:59:18;6.00;99.90
8778;DHT22;4425;50.872;4.712;2023-11-18T02:01:47;6.00;99.90
8778;DHT22;4425;50.872;4.712;2023-11-18T02:04:17;6.00;99.90
8778;DHT22;4425;50.872;4.712;2023-11-18T02:06:45;6.00;99.90
8778;DHT22;4425;50.872;4.712;2023-11-18T02:09:13;6.00;99.90
8778;DHT22;4425;50.872;4.712;2023-11-18T02:11:49;6.00;99.90
8778;DHT22;4425;50.872;4.712;2023-11-18T02:14:20;6.00;99.90
8778;DHT22;4425;50.872;4.712;2023-11-18T02:16:49;6.00;99.90
8778;DHT22;4425;50.872;4.712;2023-11-18T02:19:20;6.00;99.90
8778;DHT22;4425;50.872;4.712;2023-11-18T02:21:48;6.00;99.90
8778;DHT22;4425;50.872;4.712;2023-11-18T02:24:29;6.00;99.90
8778;DHT22;4425;50.872;4.712;2023-11-18T02:27:00;6.00;99.90
8778;DHT22;4425;50.872;4.712;2023-11-18T02:29:31;6.00;99.90
8778;DHT22;4425;50.872;4.712;2023-11-18T02:32:09;6.10;99.90
8778;DHT22;4425;50.872;4.712;2023-11-18T02:34:40;6.00;99.90
8778;DHT22;4425;50.872;4.712;2023-11-18T02:37:14;6.10;99.90
8778;DHT22;4425;50.872;4.712;2023-11-18T02:39:43;6.10;99.90
8778;DHT22;4425;50.872;4.712;2023-11-18T02:42:14;6.10;99.90
8778;DHT22;4425;50.872;4.712;2023-11-18T02:44:51;6.10;99.90
8778;DHT22;4425;50.872;4.712;2023-11-18T02:47:25;6.10;99.90
8778;DHT22;4425;50.872;4.712;2023-11-18T02:49:54;6.20;99.90
8778;DHT22;4425;50.872;4.712;2023-11-18T02:52:21;6.30;99.90
8778;DHT22;4425;50.872;4.712;2023-11-18T02:54:48;6.20;99.90
8778;DHT22;4425;50.872;4.712;2023-11-18T02:57:16;6.20;99.90
8778;DHT22;4425;50.872;4.712;2023-11-18T02:59:43;6.20;99.90
8778;DHT22;4425;50.872;4.712;2023-11-18T03:02:12;6.20;99.90
8778;DHT22;4425;50.872;4.712;2023-11-18T03:04:40;6.20;99.90
8778;DHT22;4425;50.872;4.712;2023-11-18T03:07:10;6.20;99.90
8778;DHT22;4425;50.872;4.712;2023-11-18T03:09:37;6.20;99.90
8778;DHT22;4425;50.872;4.712;2023-11-18T03:12:06;6.20;99.90
8778;DHT22;4425;50.872;4.712;2023-11-18T03:14:35;6.10;99.90
8778;DHT22;4425;50.872;4.712;2023-11-18T03:17:02;6.10;99.90
8778;DHT22;4425;50.872;4.712;2023-11-18T03:19:32;6.10;99.90
8778;DHT22;4425;50.872;4.712;2023-11-18T03:22:00;6.20;99.90
8778;DHT22;4425;50.872;4.712;2023-11-18T03:24:27;6.20;99.90
8778;DHT22;4425;50.872;4.712;2023-11-18T03:26:54;6.20;99.90
8778;DHT22;4425;50.872;4.712;2023-11-18T03:29:21;6.20;99.90
8778;DHT22;4425;50.872;4.712;2023-11-18T03:31:50;6.20;99.90
8778;DHT22;4425;50.872;4.712;2023-11-18T03:34:17;6.20;99.90
8778;DHT22;4425;50.872;4.712;2023-11-18T03:36:45;6.20;99.90
8778;DHT22;4425;50.872;4.712;2023-11-18T03:39:13;6.30;99.90
8778;DHT22;4425;50.872;4.712;2023-11-18T03:41:40;6.40;99.90
8778;DHT22;4425;50.872;4.712;2023-11-18T03:44:10;6.30;99.90
8778;DHT22;4425;50.872;4.712;2023-11-18T03:46:37;6.30;99.90
8778;DHT22;4425;50.872;4.712;2023-11-18T03:49:05;6.30;99.90
8778;DHT22;4425;50.872;4.712;2023-11-18T03:51:32;6.30;99.90
8778;DHT22;4425;50.872;4.712;2023-11-18T03:53:59;6.30;99.90
8778;DHT22;4425;50.872;4.712;2023-11-18T03:56:26;6.30;99.90
8778;DHT22;4425;50.872;4.712;2023-11-18T03:58:54;6.30;99.90
8778;DHT22;4425;50.872;4.712;2023-11-18T04:01:21;6.30;99.90
8778;DHT22;4425;50.872;4.712;2023-11-18T04:03:48;6.40;99.90
8778;DHT22;4425;50.872;4.712;2023-11-18T04:06:16;6.40;99.90
8778;DHT22;4425;50.872;4.712;2023-11-18T04:08:44;6.40;99.90
8778;DHT22;4425;50.872;4.712;2023-11-18T04:11:11;6.40;99.90
8778;DHT22;4425;50.872;4.712;2023-11-18T04:13:39;6.40;99.90
8778;DHT22;4425;50.872;4.712;2023-11-18T04:16:06;6.50;99.90
8778;DHT22;4425;50.872;4.712;2023-11-18T04:18:38;6.50;99.90
8778;DHT22;4425;50.872;4.712;2023-11-18T04:21:05;6.50;99.90
8778;DHT22;4425;50.872;4.712;2023-11-18T04:23:36;6.50;99.90
8778;DHT22;4425;50.872;4.712;2023-11-18T04:26:03;6.40;99.90
8778;DHT22;4425;50.872;4.712;2023-11-18T04:28:30;6.40;99.90
8778;DHT22;4425;50.872;4.712;2023-11-18T04:30:57;6.40;99.90
8778;DHT22;4425;50.872;4.712;2023-11-18T04:33:24;6.40;99.90
8778;DHT22;4425;50.872;4.712;2023-11-18T04:35:51;6.40;99.90
8778;DHT22;4425;50.872;4.712;2023-11-18T04:38:18;6.40;99.90
8778;DHT22;4425;50.872;4.712;2023-11-18T04:40:46;6.50;99.90
8778;DHT22;4425;50.872;4.712;2023-11-18T04:43:13;6.50;99.90
8778;DHT22;4425;50.872;4.712;2023-11-18T04:45:40;6.50;99.90
8778;DHT22;4425;50.872;4.712;2023-11-18T04:48:08;6.50;99.90
8778;DHT22;4425;50.872;4.712;2023-11-18T04:50:35;6.50;99.90
8778;DHT22;4425;50.872;4.712;2023-11-18T04:53:02;6.50;99.90
8778;DHT22;4425;50.872;4.712;2023-11-18T04:55:30;6.50;99.90
8778;DHT22;4425;50.872;4.712;2023-11-18T04:57:58;6.60;99.90
8778;DHT22;4425;50.872;4.712;2023-11-18T05:00:25;6.60;99.90
8778;DHT22;4425;50.872;4.712;2023-11-18T05:02:53;6.60;99.90
8778;DHT22;4425;50.872;4.712;2023-11-18T05:05:20;6.60;99.90
8778;DHT22;4425;50.872;4.712;2023-11-18T05:07:47;6.60;99.90
8778;DHT22;4425;50.872;4.712;2023-11-18T05:10:14;6.60;99.90
8778;DHT22;4425;50.872;4.712;2023-11-18T05:12:41;6.60;99.90
8778;DHT22;4425;50.872;4.712;2023-11-18T05:15:10;6.60;99.90
8778;DHT22;4425;50.872;4.712;2023-11-18T05:17:38;6.60;99.90
8778;DHT22;4425;50.872;4.712;2023-11-18T05:20:06;6.60;99.90
8778;DHT22;4425;50.872;4.712;2023-11-18T05:22:34;6.60;99.90
8778;DHT22;4425;50.872;4.712;2023-11-18T05:25:02;6.70;99.90
8778;DHT22;4425;50.872;4.712;2023-11-18T05:27:29;6.70;99.90
8778;DHT22;4425;50.872;4.712;2023-11-18T05:29:56;6.70;99.90
8778;DHT22;4425;50.872;4.712;2023-11-18T05:32:28;6.70;99.90
8778;DHT22;4425;50.872;4.712;2023-11-18T05:34:55;6.80;99.90
8778;DHT22;4425;50.872;4.712;2023-11-18T05:37:23;6.90;99.90
8778;DHT22;4425;50.872;4.712;2023-11-18T05:39:50;6.80;99.90
8778;DHT22;4425;50.872;4.712;2023-11-18T05:42:24;6.80;99.90
8778;DHT22;4425;50.872;4.712;2023-11-18T05:44:51;6.80;99.90
8778;DHT22;4425;50.872;4.712;2023-11-18T05:47:24;6.80;99.90
8778;DHT22;4425;50.872;4.712;2023-11-18T05:49:54;6.80;99.90
8778;DHT22;4425;50.872;4.712;2023-11-18T05:52:21;6.80;99.90
8778;DHT22;4425;50.872;4.712;2023-11-18T05:54:48;6.90;99.90
8778;DHT22;4425;50.872;4.712;2023-11-18T05:57:15;6.90;99.90
8778;DHT22;4425;50.872;4.712;2023-11-18T05:59:42;7.00;99.90
8778;DHT22;4425;50.872;4.712;2023-11-18T06:02:09;7.00;99.90
8778;DHT22;4425;50.872;4.712;2023-11-18T06:04:39;7.00;99.90
8778;DHT22;4425;50.872;4.712;2023-11-18T06:07:08;7.00;99.90
8778;DHT22;4425;50.872;4.712;2023-11-18T06:09:35;7.00;99.90
8778;DHT22;4425;50.872;4.712;2023-11-18T06:12:03;7.10;99.90
8778;DHT22;4425;50.872;4.712;2023-11-18T06:14:34;7.00;99.90
8778;DHT22;4425;50.872;4.712;2023-11-18T06:17:01;7.10;99.90
8778;DHT22;4425;50.872;4.712;2023-11-18T06:19:28;7.10;99.90
8778;DHT22;4425;50.872;4.712;2023-11-18T06:21:54;7.10;99.90
8778;DHT22;4425;50.872;4.712;2023-11-18T06:24:23;7.10;99.90
8778;DHT22;4425;50.872;4.712;2023-11-18T06:26:49;7.10;99.90
8778;DHT22;4425;50.872;4.712;2023-11-18T06:29:17;7.20;99.90
8778;DHT22;4425;50.872;4.712;2023-11-18T06:31:44;7.10;99.90
8778;DHT22;4425;50.872;4.712;2023-11-18T06:34:11;7.20;99.90
8778;DHT22;4425;50.872;4.712;2023-11-18T06:36:38;7.30;99.90
8778;DHT22;4425;50.872;4.712;2023-11-18T06:39:07;7.40;99.90
8778;DHT22;4425;50.872;4.712;2023-11-18T06:41:35;7.50;99.90
8778;DHT22;4425;50.872;4.712;2023-11-18T06:44:13;7.50;99.90
8778;DHT22;4425;50.872;4.712;2023-11-18T06:46:43;7.50;99.90
8778;DHT22;4425;50.872;4.712;2023-11-18T06:49:10;7.60;99.90
8778;DHT22;4425;50.872;4.712;2023-11-18T06:51:41;7.70;99.90
8778;DHT22;4425;50.872;4.712;2023-11-18T06:54:08;7.70;99.90
8778;DHT22;4425;50.872;4.712;2023-11-18T06:56:37;7.70;99.90
8778;DHT22;4425;50.872;4.712;2023-11-18T06:59:04;7.70;99.90
8778;DHT22;4425;50.872;4.712;2023-11-18T07:01:32;7.70;99.90
8778;DHT22;4425;50.872;4.712;2023-11-18T07:03:59;7.80;99.90
8778;DHT22;4425;50.872;4.712;2023-11-18T07:06:24;7.80;99.90
8778;DHT22;4425;50.872;4.712;2023-11-18T07:08:53;7.80;99.90
8778;DHT22;4425;50.872;4.712;2023-11-18T07:11:20;7.80;99.90
8778;DHT22;4425;50.872;4.712;2023-11-18T07:13:49;7.90;99.90
8778;DHT22;4425;50.872;4.712;2023-11-18T07:16:22;7.90;99.90
8778;DHT22;4425;50.872;4.712;2023-11-18T07:18:48;7.90;99.90
8778;DHT22;4425;50.872;4.712;2023-11-18T07:21:15;7.90;99.90
8778;DHT22;4425;50.872;4.712;2023-11-18T07:23:42;7.90;99.90
8778;DHT22;4425;50.872;4.712;2023-11-18T07:26:09;7.90;99.90
8778;DHT22;4425;50.872;4.712;2023-11-18T07:28:36;7.90;99.90
8778;DHT22;4425;50.872;4.712;2023-11-18T07:31:04;8.00;99.90
8778;DHT22;4425;50.872;4.712;2023-11-18T07:33:31;8.00;99.90
8778;DHT22;4425;50.872;4.712;2023-11-18T07:35:59;8.00;99.90
8778;DHT22;4425;50.872;4.712;2023-11-18T07:38:25;8.00;99.90
8778;DHT22;4425;50.872;4.712;2023-11-18T07:40:53;8.00;99.90
8778;DHT22;4425;50.872;4.712;2023-11-18T07:43:22;8.00;99.90
8778;DHT22;4425;50.872;4.712;2023-11-18T07:45:49;8.00;99.90
8778;DHT22;4425;50.872;4.712;2023-11-18T07:48:19;8.10;99.90
8778;DHT22;4425;50.872;4.712;2023-11-18T07:50:46;8.10;99.90
8778;DHT22;4425;50.872;4.712;2023-11-18T07:53:14;8.10;99.90
8778;DHT22;4425;50.872;4.712;2023-11-18T07:55:41;8.10;99.90
8778;DHT22;4425;50.872;4.712;2023-11-18T07:58:08;8.10;99.90
8778;DHT22;4425;50.872;4.712;2023-11-18T08:00:37;8.10;99.90
8778;DHT22;4425;50.872;4.712;2023-11-18T08:03:04;8.10;99.90
8778;DHT22;4425;50.872;4.712;2023-11-18T08:05:36;8.10;99.90
8778;DHT22;4425;50.872;4.712;2023-11-18T08:08:02;8.20;99.90
8778;DHT22;4425;50.872;4.712;2023-11-18T08:10:29;8.10;99.90
8778;DHT22;4425;50.872;4.712;2023-11-18T08:12:58;8.10;99.90
8778;DHT22;4425;50.872;4.712;2023-11-18T08:15:25;8.10;99.90
8778;DHT22;4425;50.872;4.712;2023-11-18T08:17:52;8.10;99.90
8778;DHT22;4425;50.872;4.712;2023-11-18T08:20:19;8.20;99.90
8778;DHT22;4425;50.872;4.712;2023-11-18T08:22:51;8.20;99.90
8778;DHT22;4425;50.872;4.712;2023-11-18T08:25:18;8.20;99.90
8778;DHT22;4425;50.872;4.712;2023-11-18T08:27:45;8.20;99.90
8778;DHT22;4425;50.872;4.712;2023-11-18T08:30:13;8.20;99.90
8778;DHT22;4425;50.872;4.712;2023-11-18T08:32:40;8.20;99.90
8778;DHT22;4425;50.872;4.712;2023-11-18T08:35:09;8.10;99.90
8778;DHT22;4425;50.872;4.712;2023-11-18T08:37:39;8.10;99.90
8778;DHT22;4425;50.872;4.712;2023-11-18T08:40:08;8.10;99.90
8778;DHT22;4425;50.872;4.712;2023-11-18T08:42:41;8.20;99.90
8778;DHT22;4425;50.872;4.712;2023-11-18T08:45:14;8.20;99.90
8778;DHT22;4425;50.872;4.712;2023-11-18T08:47:43;8.10;99.90
8778;DHT22;4425;50.872;4.712;2023-11-18T08:50:10;8.10;99.90
8778;DHT22;4425;50.872;4.712;2023-11-18T08:52:38;8.30;99.90
8778;DHT22;4425;50.872;4.712;2023-11-18T08:55:10;8.20;99.90
8778;DHT22;4425;50.872;4.712;2023-11-18T08:57:45;8.20;99.90
8778;DHT22;4425;50.872;4.712;2023-11-18T09:00:18;8.20;99.90
8778;DHT22;4425;50.872;4.712;2023-11-18T09:02:58;8.20;99.90
8778;DHT22;4425;50.872;4.712;2023-11-18T09:05:26;8.20;99.90
8778;DHT22;4425;50.872;4.712;2023-11-18T09:07:57;8.20;99.90
8778;DHT22;4425;50.872;4.712;2023-11-18T09:10:27;8.10;99.90
8778;DHT22;4425;50.872;4.712;2023-11-18T09:12:54;8.20;99.90
8778;DHT22;4425;50.872;4.712;2023-11-18T09:15:21;8.20;99.90
8778;DHT22;4425;50.872;4.712;2023-11-18T09:17:48;8.20;99.90
8778;DHT22;4425;50.872;4.712;2023-11-18T09:20:15;8.30;99.90
8778;DHT22;4425;50.872;4.712;2023-11-18T09:22:46;8.30;99.90
8778;DHT22;4425;50.872;4.712;2023-11-18T09:25:14;8.30;99.90
8778;DHT22;4425;50.872;4.712;2023-11-18T09:27:42;8.30;99.90
8778;DHT22;4425;50.872;4.712;2023-11-18T09:30:11;8.30;99.90
8778;DHT22;4425;50.872;4.712;2023-11-18T09:32:39;8.40;99.90
8778;DHT22;4425;50.872;4.712;2023-11-18T09:35:07;8.40;99.90
8778;DHT22;4425;50.872;4.712;2023-11-18T09:37:38;8.40;99.90
8778;DHT22;4425;50.872;4.712;2023-11-18T09:40:07;8.50;99.90
8778;DHT22;4425;50.872;4.712;2023-11-18T09:42:37;8.50;99.90
8778;DHT22;4425;50.872;4.712;2023-11-18T09:45:07;8.50;99.90
8778;DHT22;4425;50.872;4.712;2023-11-18T09:47:42;8.50;99.90
8778;DHT22;4425;50.872;4.712;2023-11-18T09:50:16;8.50;99.90
8778;DHT22;4425;50.872;4.712;2023-11-18T09:52:48;8.50;99.90
8778;DHT22;4425;50.872;4.712;2023-11-18T09:55:24;8.50;99.90
8778;DHT22;4425;50.872;4.712;2023-11-18T09:57:56;8.40;99.90
8778;DHT22;4425;50.872;4.712;2023-11-18T10:00:31;8.40;99.90
8778;DHT22;4425;50.872;4.712;2023-11-18T10:02:59;8.40;99.90
8778;DHT22;4425;50.872;4.712;2023-11-18T10:05:27;8.40;99.90
8778;DHT22;4425;50.872;4.712;2023-11-18T10:07:56;8.40;99.90
8778;DHT22;4425;50.872;4.712;2023-11-18T10:10:24;8.50;99.90
8778;DHT22;4425;50.872;4.712;2023-11-18T10:13:01;8.30;99.90
8778;DHT22;4425;50.872;4.712;2023-11-18T10:15:32;8.50;99.90
8778;DHT22;4425;50.872;4.712;2023-11-18T10:18:02;8.50;99.90
8778;DHT22;4425;50.872;4.712;2023-11-18T10:20:46;8.50;99.90
8778;DHT22;4425;50.872;4.712;2023-11-18T10:23:14;8.50;99.90
8778;DHT22;4425;50.872;4.712;2023-11-18T10:25:46;8.60;99.90
8778;DHT22;4425;50.872;4.712;2023-11-18T10:28:22;8.60;99.90
8778;DHT22;4425;50.872;4.712;2023-11-18T10:30:51;8.70;99.90
8778;DHT22;4425;50.872;4.712;2023-11-18T10:33:18;8.70;99.90
8778;DHT22;4425;50.872;4.712;2023-11-18T10:35:49;8.70;99.90
8778;DHT22;4425;50.872;4.712;2023-11-18T10:38:18;8.70;99.90
8778;DHT22;4425;50.872;4.712;2023-11-18T10:40:46;8.70;99.90
8778;DHT22;4425;50.872;4.712;2023-11-18T10:43:13;8.60;99.90
8778;DHT22;4425;50.872;4.712;2023-11-18T10:45:42;8.70;99.90
8778;DHT22;4425;50.872;4.712;2023-11-18T10:48:19;8.70;99.90
8778;DHT22;4425;50.872;4.712;2023-11-18T10:50:47;8.70;99.90
8778;DHT22;4425;50.872;4.712;2023-11-18T10:53:17;8.70;99.90
8778;DHT22;4425;50.872;4.712;2023-11-18T10:55:44;8.60;99.90
8778;DHT22;4425;50.872;4.712;2023-11-18T10:58:11;8.70;99.90
8778;DHT22;4425;50.872;4.712;2023-11-18T11:00:49;8.70;99.90
8778;DHT22;4425;50.872;4.712;2023-11-18T11:03:20;8.70;99.90
8778;DHT22;4425;50.872;4.712;2023-11-18T11:05:49;8.70;99.90
8778;DHT22;4425;50.872;4.712;2023-11-18T11:08:16;8.70;99.90
8778;DHT22;4425;50.872;4.712;2023-11-18T11:10:44;8.70;99.90
8778;DHT22;4425;50.872;4.712;2023-11-18T11:13:11;8.70;99.90
8778;DHT22;4425;50.872;4.712;2023-11-18T11:15:42;8.60;99.90
8778;DHT22;4425;50.872;4.712;2023-11-18T11:18:20;8.80;99.90
8778;DHT22;4425;50.872;4.712;2023-11-18T11:20:59;8.80;99.90
8778;DHT22;4425;50.872;4.712;2023-11-18T11:23:42;8.80;99.90
8778;DHT22;4425;50.872;4.712;2023-11-18T11:26:22;8.80;99.90
8778;DHT22;4425;50.872;4.712;2023-11-18T11:29:00;8.80;99.90
8778;DHT22;4425;50.872;4.712;2023-11-18T11:31:34;8.80;99.90
8778;DHT22;4425;50.872;4.712;2023-11-18T11:34:04;8.70;99.90
8778;DHT22;4425;50.872;4.712;2023-11-18T11:36:37;8.80;99.90
8778;DHT22;4425;50.872;4.712;2023-11-18T11:39:06;8.80;99.90
8778;DHT22;4425;50.872;4.712;2023-11-18T11:41:43;8.80;99.90
8778;DHT22;4425;50.872;4.712;2023-11-18T11:44:12;8.80;99.90
8778;DHT22;4425;50.872;4.712;2023-11-18T11:46:40;9.00;99.90
8778;DHT22;4425;50.872;4.712;2023-11-18T11:49:10;8.90;99.90
8778;DHT22;4425;50.872;4.712;2023-11-18T11:51:47;8.90;99.90
8778;DHT22;4425;50.872;4.712;2023-11-18T11:54:20;8.90;99.90
8778;DHT22;4425;50.872;4.712;2023-11-18T11:56:49;8.90;99.90
8778;DHT22;4425;50.872;4.712;2023-11-18T11:59:35;9.00;99.90
8778;DHT22;4425;50.872;4.712;2023-11-18T12:02:04;9.00;99.90
8778;DHT22;4425;50.872;4.712;2023-11-18T12:04:36;8.90;99.90
8778;DHT22;4425;50.872;4.712;2023-11-18T12:07:08;9.10;99.90
8778;DHT22;4425;50.872;4.712;2023-11-18T12:09:36;9.10;99.90
8778;DHT22;4425;50.872;4.712;2023-11-18T12:12:05;9.10;99.90
8778;DHT22;4425;50.872;4.712;2023-11-18T12:14:49;9.10;99.90
8778;DHT22;4425;50.872;4.712;2023-11-18T12:17:17;9.00;99.90
8778;DHT22;4425;50.872;4.712;2023-11-18T12:19:49;9.10;99.90
8778;DHT22;4425;50.872;4.712;2023-11-18T12:22:22;9.10;99.90
8778;DHT22;4425;50.872;4.712;2023-11-18T12:28:09;9.10;99.90
8778;DHT22;4425;50.872;4.712;2023-11-18T12:30:41;9.10;99.90
8778;DHT22;4425;50.872;4.712;2023-11-18T12:33:18;9.10;99.90
8778;DHT22;4425;50.872;4.712;2023-11-18T12:36:19;9.10;99.90
8778;DHT22;4425;50.872;4.712;2023-11-18T12:39:28;9.10;99.90
8778;DHT22;4425;50.872;4.712;2023-11-18T12:42:03;9.10;99.90
8778;DHT22;4425;50.872;4.712;2023-11-18T12:44:40;9.10;99.90
8778;DHT22;4425;50.872;4.712;2023-11-18T12:47:16;9.10;99.90
8778;DHT22;4425;50.872;4.712;2023-11-18T12:49:46;9.10;99.90
8778;DHT22;4425;50.872;4.712;2023-11-18T12:52:21;9.10;99.90
8778;DHT22;4425;50.872;4.712;2023-11-18T12:54:49;9.10;99.90
8778;DHT22;4425;50.872;4.712;2023-11-18T12:57:18;9.10;99.90
8778;DHT22;4425;50.872;4.712;2023-11-18T12:59:49;9.10;99.90
8778;DHT22;4425;50.872;4.712;2023-11-18T13:02:16;9.10;99.90
8778;DHT22;4425;50.872;4.712;2023-11-18T13:04:45;9.10;99.90
8778;DHT22;4425;50.872;4.712;2023-11-18T13:07:13;9.10;99.90
8778;DHT22;4425;50.872;4.712;2023-11-18T13:09:42;9.10;99.90
8778;DHT22;4425;50.872;4.712;2023-11-18T13:12:11;9.10;99.90
8778;DHT22;4425;50.872;4.712;2023-11-18T13:14:41;9.10;99.90
8778;DHT22;4425;50.872;4.712;2023-11-18T13:17:10;9.10;99.90
8778;DHT22;4425;50.872;4.712;2023-11-18T13:19:38;9.10;99.90
8778;DHT22;4425;50.872;4.712;2023-11-18T13:22:07;9.10;99.90
8778;DHT22;4425;50.872;4.712;2023-11-18T13:24:35;9.10;99.90
8778;DHT22;4425;50.872;4.712;2023-11-18T13:27:04;9.10;99.90
8778;DHT22;4425;50.872;4.712;2023-11-18T13:29:36;9.10;99.90
8778;DHT22;4425;50.872;4.712;2023-11-18T13:32:06;9.10;99.90
8778;DHT22;4425;50.872;4.712;2023-11-18T13:34:35;9.10;99.90
8778;DHT22;4425;50.872;4.712;2023-11-18T13:37:03;9.20;99.90
8778;DHT22;4425;50.872;4.712;2023-11-18T13:39:32;9.20;99.90
8778;DHT22;4425;50.872;4.712;2023-11-18T13:42:20;9.20;99.90
8778;DHT22;4425;50.872;4.712;2023-11-18T13:44:47;9.20;99.90
8778;DHT22;4425;50.872;4.712;2023-11-18T13:47:17;9.30;99.90
8778;DHT22;4425;50.872;4.712;2023-11-18T13:49:45;9.30;99.90
8778;DHT22;4425;50.872;4.712;2023-11-18T13:52:15;9.30;99.90
8778;DHT22;4425;50.872;4.712;2023-11-18T13:54:44;9.30;99.90
8778;DHT22;4425;50.872;4.712;2023-11-18T13:57:11;9.30;99.90
8778;DHT22;4425;50.872;4.712;2023-11-18T13:59:41;9.40;99.90
8778;DHT22;4425;50.872;4.712;2023-11-18T14:02:09;9.40;99.90
8778;DHT22;4425;50.872;4.712;2023-11-18T14:04:36;9.40;99.90
8778;DHT22;4425;50.872;4.712;2023-11-18T14:07:08;9.40;99.90
8778;DHT22;4425;50.872;4.712;2023-11-18T14:09:36;9.40;99.90
8778;DHT22;4425;50.872;4.712;2023-11-18T14:12:06;9.50;99.90
8778;DHT22;4425;50.872;4.712;2023-11-18T14:14:34;9.40;99.90
8778;DHT22;4425;50.872;4.712;2023-11-18T14:17:06;9.40;99.90
8778;DHT22;4425;50.872;4.712;2023-11-18T14:19:35;9.40;99.90
8778;DHT22;4425;50.872;4.712;2023-11-18T14:22:03;9.50;99.90
8778;DHT22;4425;50.872;4.712;2023-11-18T14:24:33;9.40;99.90
8778;DHT22;4425;50.872;4.712;2023-11-18T14:27:09;9.40;99.90
8778;DHT22;4425;50.872;4.712;2023-11-18T14:29:39;9.50;99.90
8778;DHT22;4425;50.872;4.712;2023-11-18T14:32:08;9.40;99.90
8778;DHT22;4425;50.872;4.712;2023-11-18T14:34:36;9.50;99.90
8778;DHT22;4425;50.872;4.712;2023-11-18T14:37:04;9.50;99.90
8778;DHT22;4425;50.872;4.712;2023-11-18T14:39:34;9.50;99.90
8778;DHT22;4425;50.872;4.712;2023-11-18T14:42:03;9.50;99.90
8778;DHT22;4425;50.872;4.712;2023-11-18T14:44:31;9.50;99.90
8778;DHT22;4425;50.872;4.712;2023-11-18T14:46:57;9.50;99.90
8778;DHT22;4425;50.872;4.712;2023-11-18T14:49:27;9.60;99.90
8778;DHT22;4425;50.872;4.712;2023-11-18T14:51:54;9.50;99.90
8778;DHT22;4425;50.872;4.712;2023-11-18T14:54:22;9.60;99.90
8778;DHT22;4425;50.872;4.712;2023-11-18T14:56:49;9.60;99.90
8778;DHT22;4425;50.872;4.712;2023-11-18T14:59:16;9.60;99.90
8778;DHT22;4425;50.872;4.712;2023-11-18T15:01:43;9.60;99.90
8778;DHT22;4425;50.872;4.712;2023-11-18T15:04:10;9.60;99.90
8778;DHT22;4425;50.872;4.712;2023-11-18T15:06:40;9.70;99.90
8778;DHT22;4425;50.872;4.712;2023-11-18T15:09:07;9.70;99.90
8778;DHT22;4425;50.872;4.712;2023-11-18T15:11:36;9.70;99.90
8778;DHT22;4425;50.872;4.712;2023-11-18T15:14:03;9.70;99.90
8778;DHT22;4425;50.872;4.712;2023-11-18T15:16:33;9.80;99.90
8778;DHT22;4425;50.872;4.712;2023-11-18T15:18:59;9.80;99.90
8778;DHT22;4425;50.872;4.712;2023-11-18T15:21:26;9.80;99.90
8778;DHT22;4425;50.872;4.712;2023-11-18T15:23:56;9.80;99.90
8778;DHT22;4425;50.872;4.712;2023-11-18T15:26:26;9.70;99.90
8778;DHT22;4425;50.872;4.712;2023-11-18T15:28:56;9.80;99.90
8778;DHT22;4425;50.872;4.712;2023-11-18T15:31:24;9.90;99.90
8778;DHT22;4425;50.872;4.712;2023-11-18T15:33:54;9.80;99.90
8778;DHT22;4425;50.872;4.712;2023-11-18T15:36:22;9.80;99.90
8778;DHT22;4425;50.872;4.712;2023-11-18T15:38:51;9.90;99.90
8778;DHT22;4425;50.872;4.712;2023-11-18T15:41:19;9.90;99.90
8778;DHT22;4425;50.872;4.712;2023-11-18T15:43:46;9.90;99.90
8778;DHT22;4425;50.872;4.712;2023-11-18T15:46:14;9.90;99.90
8778;DHT22;4425;50.872;4.712;2023-11-18T15:48:40;9.90;99.90
8778;DHT22;4425;50.872;4.712;2023-11-18T15:51:07;9.90;99.90
8778;DHT22;4425;50.872;4.712;2023-11-18T15:53:38;9.90;99.90
8778;DHT22;4425;50.872;4.712;2023-11-18T15:56:06;10.00;99.90
8778;DHT22;4425;50.872;4.712;2023-11-18T15:58:35;9.90;99.90
8778;DHT22;4425;50.872;4.712;2023-11-18T16:01:03;9.90;99.90
8778;DHT22;4425;50.872;4.712;2023-11-18T16:03:30;10.00;99.90
8778;DHT22;4425;50.872;4.712;2023-11-18T16:05:57;10.00;99.90
8778;DHT22;4425;50.872;4.712;2023-11-18T16:08:23;9.90;99.90
8778;DHT22;4425;50.872;4.712;2023-11-18T16:10:51;10.00;99.90
8778;DHT22;4425;50.872;4.712;2023-11-18T16:13:19;10.00;99.90
8778;DHT22;4425;50.872;4.712;2023-11-18T16:15:48;10.10;99.90
8778;DHT22;4425;50.872;4.712;2023-11-18T16:18:15;10.00;99.90
8778;DHT22;4425;50.872;4.712;2023-11-18T16:20:42;10.00;99.90
8778;DHT22;4425;50.872;4.712;2023-11-18T16:23:10;10.10;99.90
8778;DHT22;4425;50.872;4.712;2023-11-18T16:25:37;10.10;99.90
8778;DHT22;4425;50.872;4.712;2023-11-18T16:28:04;10.10;99.90
8778;DHT22;4425;50.872;4.712;2023-11-18T16:30:32;10.20;99.90
8778;DHT22;4425;50.872;4.712;2023-11-18T16:33:01;10.20;99.90